Haro Strait: Past 24 Hour Conditions

 

South Moresby - 46147

04:00 PM PST 12 November 2018Buoy position: 51.83N 131.23W
Disclaimer

This table is a summary of hourly weather conditions for the past 24 hours.
Please note that these observations might not always be representative of weather conditions over their associated marine area.

Date / Time
(PST)
Wind(knots) Wave height(m) Wave period(s) Pressure(kPa) Air tempC) Water tempC)
12 November 2018
16:00 SSE 16 gust 19 3.0 7.0 101.8 11 9
15:00 SSE 18 gust 21 3.2 8.0 101.9 11 9
14:00 N/A N/A N/A N/A N/A N/A
13:00 SE 18 gust 21 2.8 7.0 101.9 11 10
12:00 SE 19 gust 23 2.7 7.0 102.0 11 10
11:00 SE 21 gust 25 2.7 7.0 102.0 11 10
10:00 SE 21 gust 25 2.5 6.0 102.1 11 10
9:00 SE 21 2.5 7.0 102.1 11 10
8:00 ESE 19 gust 23 2.4 7.0 102.1 11 10
7:00 ESE 19 gust 23 2.3 8.0 102.2 11 10
6:00 ESE 18 gust 21 2.3 7.0 102.3 11 10
5:00 ESE 18 gust 21 2.1 7.0 102.3 10 10
4:00 ESE 18 gust 21 2.0 7.0 102.4 10 10
3:00 ESE 18 gust 19 1.8 7.0 102.5 10 10
2:00 ESE 16 gust 18 1.8 8.0 102.5 10 10
1:00 SE 14 gust 16 1.7 7.0 102.6 10 10
0:00 SE 12 gust 14 1.5 7.0 102.7 10 10
11 November 2018
23:00 SE 16 gust 18 1.4 7.0 102.7 11 10
22:00 SSE 14 gust 16 1.5 7.0 102.7 10 10
21:00 SSE 16 gust 19 1.5 5.0 102.7 10 10
20:00 SE 16 gust 18 1.5 6.0 102.7 10 10
19:00 SE 12 gust 16 1.4 5.0 102.8 10 10
18:00 SSE 18 gust 19 1.1 4.0 102.7 10 10
17:00 SSE 16 gust 19 1.0 4.0 102.8 10 10
16:00 SE 16 gust 18 0.8 10.0 102.8 10 10

Zoom-in to make a selection

Map of Pacific - South Coast marine weather areas South Nomad - 46036 Sentry Shoal - 46131 South Brooks - 46132 Halibut Bank - 46146 South Moresby - 46147 South Hecate Strait - 46185 West Sea Otter - 46204 La Perouse Bank - 46206 East Dellwood - 46207 Discovery Island Esquimalt Harbour Kelp Reefs Malahat Race Rocks Lightstation Saturna Island Sheringham Point University of Victoria Victoria Gonzales Victoria Int'l Airport Ballenas Islands Campbell River Airport Comox Airport Entrance Island Fanny Island Nanaimo Airport Port Hardy Airport Sisters Islets Estevan Point Port Alberni Sartine Island Solander Island Tofino Airport Grief Point Howe Sound - Pam Rocks Powell River Airport Sechelt Squamish Airport Cape St.James Bella Bella Airport Bella Coola Airport Cathedral Point Herbert Island Point Atkinson Sand Heads Lightstation Tsawwassen Ferry Terminal Vancouver Int'l Airport Vancouver Harbour West Vancouver
Legend:
buoy Buoy
land station Land Station

Pacific - South Coast Area

Another Region

What we are doing

Date modified: